DTTF/GAF METAR and TAF weather

Enter ICAO airport designator
Station Type Date Time Source
DTTF METAR 2021/03/05 19:00 UTC NOAA

DTTF 051900Z 05011KT 8000 SCT026 15/06 Q1016 NOSIG


Station Type Date Time Source
DTTF Decoded METAR 2021/03/05 19:00 UTC NOAA

Gafsa, Tunisia (DTTF) 34-25N 008-49E 314M
Mar 05, 2021 - 02:00 PM EST / 2021.03.05 1900 UTC
Wind: from the NE (050 degrees) at 13 MPH (11 KT):0
Visibility: 4 mile(s):0
Sky conditions: partly cloudy
Temperature: 59 F (15 C)
Dew Point: 42 F (6 C)
Relative Humidity: 54%
Pressure (altimeter): 30.00 in. Hg (1016 hPa)
ob: DTTF 051900Z 05011KT 8000 SCT026 15/06 Q1016 NOSIG
cycle: 19

Station Type Date Time Source
DTTF TAF 2021/01/24 22:42 UTC NOAA

TAF DTTF 242100Z 2422/2607 24010KT 9999 FEW033
BECMG 2500/2502 VRB03KT

Example: see airport list